sensor_id;sensor_type;location;lat;lon;timestamp;P1;durP1;ratioP1;P2;durP2;ratioP2
6665;SDS011;3369;49.906;8.598;2022-11-13T02:39:25;7.53;;;6.80;;
6665;SDS011;3369;49.906;8.598;2022-11-13T02:41:51;6.93;;;6.23;;
6665;SDS011;3369;49.906;8.598;2022-11-13T02:44:17;6.87;;;6.17;;
6665;SDS011;3369;49.906;8.598;2022-11-13T02:46:42;7.37;;;6.67;;
6665;SDS011;3369;49.906;8.598;2022-11-13T02:49:08;6.67;;;6.07;;
6665;SDS011;3369;49.906;8.598;2022-11-13T02:51:33;6.10;;;5.60;;
6665;SDS011;3369;49.906;8.598;2022-11-13T02:53:59;6.10;;;5.53;;
6665;SDS011;3369;49.906;8.598;2022-11-13T02:56:25;6.30;;;5.67;;
6665;SDS011;3369;49.906;8.598;2022-11-13T02:58:50;6.23;;;5.63;;
6665;SDS011;3369;49.906;8.598;2022-11-13T03:01:16;7.47;;;5.50;;
6665;SDS011;3369;49.906;8.598;2022-11-13T03:03:42;5.87;;;5.37;;
6665;SDS011;3369;49.906;8.598;2022-11-13T03:06:08;6.00;;;5.50;;
6665;SDS011;3369;49.906;8.598;2022-11-13T03:08:33;6.63;;;6.03;;
6665;SDS011;3369;49.906;8.598;2022-11-13T03:10:59;6.47;;;5.87;;
6665;SDS011;3369;49.906;8.598;2022-11-13T03:13:30;5.60;;;5.10;;
6665;SDS011;3369;49.906;8.598;2022-11-13T03:15:56;5.57;;;5.07;;
6665;SDS011;3369;49.906;8.598;2022-11-13T03:18:28;5.83;;;5.33;;
6665;SDS011;3369;49.906;8.598;2022-11-13T03:20:54;5.83;;;5.30;;
6665;SDS011;3369;49.906;8.598;2022-11-13T03:23:19;5.73;;;5.27;;
6665;SDS011;3369;49.906;8.598;2022-11-13T03:25:45;5.57;;;5.07;;
6665;SDS011;3369;49.906;8.598;2022-11-13T03:28:11;6.50;;;5.90;;
6665;SDS011;3369;49.906;8.598;2022-11-13T03:30:36;6.03;;;5.43;;
6665;SDS011;3369;49.906;8.598;2022-11-13T03:33:02;5.53;;;5.03;;
6665;SDS011;3369;49.906;8.598;2022-11-13T03:35:27;5.37;;;4.97;;
6665;SDS011;3369;49.906;8.598;2022-11-13T03:37:53;5.80;;;5.30;;
6665;SDS011;3369;49.906;8.598;2022-11-13T03:40:18;5.43;;;4.93;;
6665;SDS011;3369;49.906;8.598;2022-11-13T03:42:44;6.10;;;5.50;;
6665;SDS011;3369;49.906;8.598;2022-11-13T03:45:10;5.60;;;5.10;;
6665;SDS011;3369;49.906;8.598;2022-11-13T03:47:35;6.33;;;5.77;;
6665;SDS011;3369;49.906;8.598;2022-11-13T03:50:01;5.67;;;5.07;;
6665;SDS011;3369;49.906;8.598;2022-11-13T03:52:26;5.53;;;5.03;;
6665;SDS011;3369;49.906;8.598;2022-11-13T03:54:52;5.20;;;4.80;;
6665;SDS011;3369;49.906;8.598;2022-11-13T03:57:18;5.83;;;5.23;;
6665;SDS011;3369;49.906;8.598;2022-11-13T03:59:43;6.20;;;5.20;;
6665;SDS011;3369;49.906;8.598;2022-11-13T04:02:09;5.70;;;5.10;;
6665;SDS011;3369;49.906;8.598;2022-11-13T04:04:34;5.33;;;4.87;;
6665;SDS011;3369;49.906;8.598;2022-11-13T04:07:00;4.60;;;4.20;;
6665;SDS011;3369;49.906;8.598;2022-11-13T04:09:26;5.20;;;4.70;;
6665;SDS011;3369;49.906;8.598;2022-11-13T04:11:52;6.27;;;4.87;;
6665;SDS011;3369;49.906;8.598;2022-11-13T04:14:18;4.87;;;4.47;;
6665;SDS011;3369;49.906;8.598;2022-11-13T04:16:43;5.73;;;5.23;;
6665;SDS011;3369;49.906;8.598;2022-11-13T04:19:09;5.60;;;5.10;;
6665;SDS011;3369;49.906;8.598;2022-11-13T04:21:34;5.10;;;4.60;;
6665;SDS011;3369;49.906;8.598;2022-11-13T04:24:00;4.97;;;4.53;;
6665;SDS011;3369;49.906;8.598;2022-11-13T04:26:26;5.30;;;4.83;;
6665;SDS011;3369;49.906;8.598;2022-11-13T04:28:51;6.00;;;5.40;;
6665;SDS011;3369;49.906;8.598;2022-11-13T04:31:17;5.37;;;4.87;;
6665;SDS011;3369;49.906;8.598;2022-11-13T04:33:42;5.83;;;5.30;;
6665;SDS011;3369;49.906;8.598;2022-11-13T04:36:08;5.40;;;4.83;;
6665;SDS011;3369;49.906;8.598;2022-11-13T04:38:34;5.00;;;4.60;;
6665;SDS011;3369;49.906;8.598;2022-11-13T04:40:59;5.37;;;4.87;;
6665;SDS011;3369;49.906;8.598;2022-11-13T04:43:43;4.77;;;4.37;;
6665;SDS011;3369;49.906;8.598;2022-11-13T04:46:09;5.20;;;4.70;;
6665;SDS011;3369;49.906;8.598;2022-11-13T04:48:34;5.07;;;4.63;;
6665;SDS011;3369;49.906;8.598;2022-11-13T04:51:00;4.57;;;4.17;;
6665;SDS011;3369;49.906;8.598;2022-11-13T04:53:25;4.80;;;4.40;;
6665;SDS011;3369;49.906;8.598;2022-11-13T04:55:51;4.60;;;4.20;;
6665;SDS011;3369;49.906;8.598;2022-11-13T04:58:17;4.33;;;3.93;;
6665;SDS011;3369;49.906;8.598;2022-11-13T05:00:43;5.00;;;4.50;;
6665;SDS011;3369;49.906;8.598;2022-11-13T05:03:09;4.70;;;4.30;;
6665;SDS011;3369;49.906;8.598;2022-11-13T05:05:34;5.10;;;4.60;;
6665;SDS011;3369;49.906;8.598;2022-11-13T05:08:00;4.37;;;3.97;;
6665;SDS011;3369;49.906;8.598;2022-11-13T05:10:25;3.97;;;3.67;;
6665;SDS011;3369;49.906;8.598;2022-11-13T05:12:54;4.23;;;3.87;;
6665;SDS011;3369;49.906;8.598;2022-11-13T05:15:20;4.70;;;4.30;;
6665;SDS011;3369;49.906;8.598;2022-11-13T05:17:47;4.57;;;4.17;;
6665;SDS011;3369;49.906;8.598;2022-11-13T05:20:13;5.03;;;4.40;;
6665;SDS011;3369;49.906;8.598;2022-11-13T05:22:39;4.57;;;4.17;;
6665;SDS011;3369;49.906;8.598;2022-11-13T05:25:04;4.57;;;4.17;;
6665;SDS011;3369;49.906;8.598;2022-11-13T05:27:30;4.97;;;4.47;;
6665;SDS011;3369;49.906;8.598;2022-11-13T05:29:56;5.20;;;4.47;;
6665;SDS011;3369;49.906;8.598;2022-11-13T05:32:21;4.70;;;4.20;;
6665;SDS011;3369;49.906;8.598;2022-11-13T05:34:47;5.23;;;4.70;;
6665;SDS011;3369;49.906;8.598;2022-11-13T05:37:12;4.93;;;4.47;;
6665;SDS011;3369;49.906;8.598;2022-11-13T05:39:38;5.23;;;4.73;;
6665;SDS011;3369;49.906;8.598;2022-11-13T05:42:04;5.10;;;4.60;;
6665;SDS011;3369;49.906;8.598;2022-11-13T05:44:30;5.23;;;4.73;;
6665;SDS011;3369;49.906;8.598;2022-11-13T05:46:55;5.33;;;4.83;;
6665;SDS011;3369;49.906;8.598;2022-11-13T05:49:21;6.00;;;5.50;;
6665;SDS011;3369;49.906;8.598;2022-11-13T05:51:47;5.20;;;4.70;;
6665;SDS011;3369;49.906;8.598;2022-11-13T05:54:12;5.30;;;4.77;;
6665;SDS011;3369;49.906;8.598;2022-11-13T05:56:38;5.30;;;4.80;;
6665;SDS011;3369;49.906;8.598;2022-11-13T05:59:04;5.13;;;4.63;;
6665;SDS011;3369;49.906;8.598;2022-11-13T06:03:59;4.83;;;4.43;;
6665;SDS011;3369;49.906;8.598;2022-11-13T06:06:26;4.90;;;4.50;;
6665;SDS011;3369;49.906;8.598;2022-11-13T06:08:53;4.57;;;4.17;;
6665;SDS011;3369;49.906;8.598;2022-11-13T06:11:21;4.67;;;4.17;;
6665;SDS011;3369;49.906;8.598;2022-11-13T06:13:49;4.20;;;3.90;;
6665;SDS011;3369;49.906;8.598;2022-11-13T06:16:20;4.50;;;4.10;;
6665;SDS011;3369;49.906;8.598;2022-11-13T06:18:58;4.50;;;4.10;;
6665;SDS011;3369;49.906;8.598;2022-11-13T06:21:26;4.90;;;4.40;;
6665;SDS011;3369;49.906;8.598;2022-11-13T06:23:53;4.80;;;4.40;;
6665;SDS011;3369;49.906;8.598;2022-11-13T06:26:21;4.50;;;4.10;;
6665;SDS011;3369;49.906;8.598;2022-11-13T06:28:57;4.17;;;3.87;;
6665;SDS011;3369;49.906;8.598;2022-11-13T06:31:24;4.47;;;4.03;;
6665;SDS011;3369;49.906;8.598;2022-11-13T06:33:52;4.70;;;4.30;;
6665;SDS011;3369;49.906;8.598;2022-11-13T06:36:19;4.40;;;4.00;;
6665;SDS011;3369;49.906;8.598;2022-11-13T06:38:47;6.37;;;4.17;;
6665;SDS011;3369;49.906;8.598;2022-11-13T06:41:14;4.77;;;3.80;;
6665;SDS011;3369;49.906;8.598;2022-11-13T06:43:42;5.20;;;4.63;;
6665;SDS011;3369;49.906;8.598;2022-11-13T06:46:12;4.77;;;4.37;;
6665;SDS011;3369;49.906;8.598;2022-11-13T06:48:42;4.23;;;3.90;;
6665;SDS011;3369;49.906;8.598;2022-11-13T06:51:10;4.40;;;4.00;;
6665;SDS011;3369;49.906;8.598;2022-11-13T06:53:39;4.03;;;3.70;;
6665;SDS011;3369;49.906;8.598;2022-11-13T06:56:05;4.53;;;4.10;;
6665;SDS011;3369;49.906;8.598;2022-11-13T06:58:31;5.27;;;4.03;;
6665;SDS011;3369;49.906;8.598;2022-11-13T07:00:57;4.63;;;4.20;;
6665;SDS011;3369;49.906;8.598;2022-11-13T07:03:28;4.50;;;4.10;;
6665;SDS011;3369;49.906;8.598;2022-11-13T07:05:53;4.33;;;3.93;;
6665;SDS011;3369;49.906;8.598;2022-11-13T07:08:19;5.00;;;3.63;;
6665;SDS011;3369;49.906;8.598;2022-11-13T07:10:51;5.37;;;4.87;;
6665;SDS011;3369;49.906;8.598;2022-11-13T07:13:18;4.13;;;3.83;;
6665;SDS011;3369;49.906;8.598;2022-11-13T07:15:45;4.10;;;3.70;;
6665;SDS011;3369;49.906;8.598;2022-11-13T07:18:11;4.20;;;3.80;;
6665;SDS011;3369;49.906;8.598;2022-11-13T07:20:36;4.47;;;4.07;;
6665;SDS011;3369;49.906;8.598;2022-11-13T07:23:02;4.40;;;4.00;;
6665;SDS011;3369;49.906;8.598;2022-11-13T07:25:29;4.10;;;3.70;;
6665;SDS011;3369;49.906;8.598;2022-11-13T07:27:55;4.87;;;4.43;;
6665;SDS011;3369;49.906;8.598;2022-11-13T07:30:21;4.30;;;3.90;;
6665;SDS011;3369;49.906;8.598;2022-11-13T07:32:47;4.13;;;3.83;;
6665;SDS011;3369;49.906;8.598;2022-11-13T07:35:13;4.47;;;4.07;;
6665;SDS011;3369;49.906;8.598;2022-11-13T07:37:40;4.73;;;4.33;;
6665;SDS011;3369;49.906;8.598;2022-11-13T07:40:06;4.97;;;4.57;;
6665;SDS011;3369;49.906;8.598;2022-11-13T07:42:33;4.00;;;3.70;;
6665;SDS011;3369;49.906;8.598;2022-11-13T07:44:58;4.77;;;4.37;;
6665;SDS011;3369;49.906;8.598;2022-11-13T07:47:24;4.40;;;4.00;;
6665;SDS011;3369;49.906;8.598;2022-11-13T07:49:50;4.70;;;4.30;;
6665;SDS011;3369;49.906;8.598;2022-11-13T07:52:15;4.33;;;3.93;;
6665;SDS011;3369;49.906;8.598;2022-11-13T07:54:41;4.13;;;3.83;;
6665;SDS011;3369;49.906;8.598;2022-11-13T07:57:07;4.17;;;3.87;;
6665;SDS011;3369;49.906;8.598;2022-11-13T07:59:33;3.93;;;3.63;;
6665;SDS011;3369;49.906;8.598;2022-11-13T08:01:58;3.67;;;3.37;;
6665;SDS011;3369;49.906;8.598;2022-11-13T08:04:24;4.30;;;4.00;;
6665;SDS011;3369;49.906;8.598;2022-11-13T08:06:50;4.17;;;3.80;;
6665;SDS011;3369;49.906;8.598;2022-11-13T08:09:15;4.23;;;3.83;;
6665;SDS011;3369;49.906;8.598;2022-11-13T08:11:41;3.80;;;3.50;;
6665;SDS011;3369;49.906;8.598;2022-11-13T08:14:07;4.10;;;3.80;;
6665;SDS011;3369;49.906;8.598;2022-11-13T08:16:32;3.97;;;3.67;;
6665;SDS011;3369;49.906;8.598;2022-11-13T08:18:58;3.80;;;3.50;;
6665;SDS011;3369;49.906;8.598;2022-11-13T08:21:23;3.83;;;3.53;;
6665;SDS011;3369;49.906;8.598;2022-11-13T08:23:49;4.00;;;3.70;;
6665;SDS011;3369;49.906;8.598;2022-11-13T08:26:16;4.10;;;3.80;;
6665;SDS011;3369;49.906;8.598;2022-11-13T08:28:42;3.80;;;3.50;;
6665;SDS011;3369;49.906;8.598;2022-11-13T08:31:11;4.03;;;3.73;;
6665;SDS011;3369;49.906;8.598;2022-11-13T08:33:40;4.13;;;3.73;;
6665;SDS011;3369;49.906;8.598;2022-11-13T08:36:07;4.27;;;3.87;;
6665;SDS011;3369;49.906;8.598;2022-11-13T08:38:33;4.30;;;4.00;;
6665;SDS011;3369;49.906;8.598;2022-11-13T08:40:59;4.60;;;4.20;;
6665;SDS011;3369;49.906;8.598;2022-11-13T08:43:26;3.87;;;3.57;;
6665;SDS011;3369;49.906;8.598;2022-11-13T08:45:52;4.87;;;4.37;;
6665;SDS011;3369;49.906;8.598;2022-11-13T08:48:17;4.00;;;3.70;;
6665;SDS011;3369;49.906;8.598;2022-11-13T08:50:43;4.40;;;4.00;;
6665;SDS011;3369;49.906;8.598;2022-11-13T08:53:09;4.07;;;3.77;;
6665;SDS011;3369;49.906;8.598;2022-11-13T08:55:35;4.70;;;4.30;;
6665;SDS011;3369;49.906;8.598;2022-11-13T08:58:01;4.43;;;4.03;;
6665;SDS011;3369;49.906;8.598;2022-11-13T09:00:29;4.80;;;4.30;;
6665;SDS011;3369;49.906;8.598;2022-11-13T09:02:56;6.47;;;4.40;;
6665;SDS011;3369;49.906;8.598;2022-11-13T09:05:22;5.07;;;4.57;;
6665;SDS011;3369;49.906;8.598;2022-11-13T09:07:49;5.73;;;5.23;;
6665;SDS011;3369;49.906;8.598;2022-11-13T09:10:18;5.33;;;4.83;;
6665;SDS011;3369;49.906;8.598;2022-11-13T09:12:43;5.17;;;4.77;;
6665;SDS011;3369;49.906;8.598;2022-11-13T09:15:09;6.27;;;5.57;;
6665;SDS011;3369;49.906;8.598;2022-11-13T09:17:36;5.93;;;5.33;;
6665;SDS011;3369;49.906;8.598;2022-11-13T09:20:02;5.17;;;4.73;;
6665;SDS011;3369;49.906;8.598;2022-11-13T09:22:31;5.63;;;5.10;;
6665;SDS011;3369;49.906;8.598;2022-11-13T09:24:57;6.53;;;5.13;;
6665;SDS011;3369;49.906;8.598;2022-11-13T09:27:22;5.53;;;5.03;;
6665;SDS011;3369;49.906;8.598;2022-11-13T09:29:48;5.53;;;5.03;;
6665;SDS011;3369;49.906;8.598;2022-11-13T09:32:14;5.93;;;5.43;;
6665;SDS011;3369;49.906;8.598;2022-11-13T09:34:41;6.20;;;5.60;;
6665;SDS011;3369;49.906;8.598;2022-11-13T09:37:06;5.53;;;5.03;;
6665;SDS011;3369;49.906;8.598;2022-11-13T09:39:32;5.37;;;4.90;;
6665;SDS011;3369;49.906;8.598;2022-11-13T09:44:39;4.87;;;4.47;;
6665;SDS011;3369;49.906;8.598;2022-11-13T09:47:19;5.00;;;4.60;;
6665;SDS011;3369;49.906;8.598;2022-11-13T09:50:31;5.20;;;4.80;;
6665;SDS011;3369;49.906;8.598;2022-11-13T09:52:46;4.87;;;4.47;;
6665;SDS011;3369;49.906;8.598;2022-11-13T09:55:13;4.70;;;4.30;;
6665;SDS011;3369;49.906;8.598;2022-11-13T09:57:46;4.83;;;4.43;;
6665;SDS011;3369;49.906;8.598;2022-11-13T10:00:24;4.60;;;4.20;;
6665;SDS011;3369;49.906;8.598;2022-11-13T22:58:09;7.63;;;5.80;;
6665;SDS011;3369;49.906;8.598;2022-11-13T23:00:35;7.53;;;5.93;;
6665;SDS011;3369;49.906;8.598;2022-11-13T23:03:01;6.53;;;5.93;;
6665;SDS011;3369;49.906;8.598;2022-11-13T23:05:26;6.57;;;5.87;;
6665;SDS011;3369;49.906;8.598;2022-11-13T23:07:52;7.70;;;5.70;;
6665;SDS011;3369;49.906;8.598;2022-11-13T23:10:17;7.37;;;5.60;;
6665;SDS011;3369;49.906;8.598;2022-11-13T23:12:43;7.20;;;6.20;;
6665;SDS011;3369;49.906;8.598;2022-11-13T23:15:09;10.40;;;7.23;;
6665;SDS011;3369;49.906;8.598;2022-11-13T23:17:34;9.10;;;7.47;;
6665;SDS011;3369;49.906;8.598;2022-11-13T23:20:00;8.47;;;6.97;;
6665;SDS011;3369;49.906;8.598;2022-11-13T23:22:26;10.33;;;8.20;;
6665;SDS011;3369;49.906;8.598;2022-11-13T23:24:51;9.70;;;7.27;;
6665;SDS011;3369;49.906;8.598;2022-11-13T23:27:17;9.33;;;6.67;;
6665;SDS011;3369;49.906;8.598;2022-11-13T23:29:43;8.37;;;6.30;;
6665;SDS011;3369;49.906;8.598;2022-11-13T23:32:08;8.73;;;7.50;;
6665;SDS011;3369;49.906;8.598;2022-11-13T23:34:34;8.47;;;7.00;;
6665;SDS011;3369;49.906;8.598;2022-11-13T23:36:59;8.47;;;7.27;;
6665;SDS011;3369;49.906;8.598;2022-11-13T23:39:25;9.27;;;7.63;;
6665;SDS011;3369;49.906;8.598;2022-11-13T23:41:50;8.60;;;6.93;;
6665;SDS011;3369;49.906;8.598;2022-11-13T23:44:16;11.03;;;7.83;;
6665;SDS011;3369;49.906;8.598;2022-11-13T23:46:42;8.90;;;7.60;;
6665;SDS011;3369;49.906;8.598;2022-11-13T23:49:07;10.57;;;7.80;;
6665;SDS011;3369;49.906;8.598;2022-11-13T23:51:33;8.60;;;7.13;;
6665;SDS011;3369;49.906;8.598;2022-11-13T23:53:58;9.27;;;7.53;;
6665;SDS011;3369;49.906;8.598;2022-11-13T23:56:24;10.10;;;8.60;;
6665;SDS011;3369;49.906;8.598;2022-11-13T23:58:50;10.80;;;9.00;;
